Kenai, AK (99611)

11:38 PM AKDT on May 24, 2017 (GMT -0800)
Crow ct | | Change Station

Elev 99 ft 60.55 °N, 151.20 °W | Updated 3 seconds ago

Clear
Clear
43.3 °F
Feels Like 38 °F
N
9.9
Wind Variable Wind from South

Today
High -- | Low -- °F
--% Chance of Precip.
Yesterday
High -- | Low -- °F
Precip. -- in
Pressure 29.97 in
Visibility 10.0 miles
Clouds Clear
Windchill 38 °F
Dew Point 34 °F
Humidity 70%
Rainfall in
Snow Depth Not available.
5:02 AM 11:03 PM
Waning Crescent, 0% visible
METAR PAEN 250653Z AUTO 20022G27KT 10SM CLR 07/02 A2996 RMK AO2 PK WND 20031/0615 SLP147 T00670017 TSNO $
Pressure 29.97 in
Visibility 10.0 miles
Clouds Clear
Windchill 38 °F
Dew Point 34 °F
Humidity 70%
Rainfall in
Snow Depth Not available.
5:02 AM 11:03 PM
Waning Crescent, 0% visible
METAR PAEN 250653Z AUTO 20022G27KT 10SM CLR 07/02 A2996 RMK AO2 PK WND 20031/0615 SLP147 T00670017 TSNO $

Get Severe Weather Alerts

Thanks for signing up!

Be on the lookout for a verification email in your inbox.

You'll start receiving the daily forecast at 6 AM.

×

10-Day Weather Forecast

Almanac

Astronomy

May. 24, 2017 Rise Set
Actual Time
Civil Twilight
Nautical Twilight
Astronomical Twilight
Moon
Length of Visible Light
Length of Day
Tomorrow will be .
, % of the Moon is Illuminated

Today's Extremes

State Highs State Lows

Community

WunderPhotos

Category 6

Welcome to Category 6. This is the collective home for Weather Underground's featured writeups by Dr. Jeff Masters (right), Bob Henson (left), Chris Burt, and other regular contributors.

Nearby

Air Quality

  Air Quality AQ Index Pollutant
Not available.

Snow Depth

Station Depth Elevation

Earthquake Activity

City Distance Mag. Time & Date
Minimum magnitude displayed is 2.5.

Coastal Water Temperatures

Place Temperature

Stations

Nearby Weather Stations

Station Location Temp. Windchill Dew Point Humidity Wind Precip. Elev Updated Type
                   

Watches & Warnings

There are currently no watches in effect.